»·PEaware :: N445CP KLAX-KSAN

N445CP :: KLAX-KSAN

FLIGHT INFORMATION

Flight Status: Arrived
Operator: Privately registered:
United States
More flights under this callsign
Pilot: Regien D. (27231)
Aircraft: CESSNA 182 SKYLANE
(C182)
More flights by this aircraft type
Origin: KLAX Los Angeles Intl
United States
Destination: KSAN San Diego Intl-Lindbergh
United States
More flights between these airports :: More routes between these airports
Route: LAX SLI OCN MZB
File this flight plan on PilotEdge
Remarks:
Altitude:
(Current/Filed)
3,500ft
Speed:
(Current/Filed)
140kts
Departed: 06-Jan-20 12:55 PM
Arrived: 06-Jan-20 01:42 PM
Distance/Time
Traveled:
95nm/0:47
Distance/Time
To Go:
Arrived

Flight Plot

Page will automatically refresh every two minutes.

Flight plan parsing failed; only flown route is shown


Map Options




Map Legend


Flown Route
Filed Route
Departure Airport
Arrival Airport
Navaid (VOR, NDB)
Fix

Horizontal Profiles

Position Reports

Time Latitude Longitude Heading Altitude Ground
Speed
06-Jan-20 12:22 33.932658 -118.399139 83 114ft 0kts
06-Jan-20 12:23 33.932658 -118.399139 83 114ft 0kts
06-Jan-20 12:24 33.932658 -118.399139 83 114ft 0kts
06-Jan-20 12:25 33.932658 -118.399139 83 114ft 0kts
06-Jan-20 12:26 33.932658 -118.399139 83 114ft 0kts
06-Jan-20 12:27 33.932658 -118.399139 83 114ft 0kts
06-Jan-20 12:28 33.932658 -118.399139 83 114ft 0kts
06-Jan-20 12:29 33.932658 -118.399139 83 114ft 0kts
06-Jan-20 12:30 33.932658 -118.399139 83 114ft 0kts
06-Jan-20 12:31 33.932658 -118.399139 83 114ft 0kts
06-Jan-20 12:32 33.932658 -118.399139 83 114ft 0kts
06-Jan-20 12:33 33.932658 -118.399139 83 114ft 0kts
06-Jan-20 12:34 33.932658 -118.399139 83 114ft 0kts
06-Jan-20 12:35 33.932658 -118.399139 83 114ft 0kts
06-Jan-20 12:36 33.932658 -118.399139 83 114ft 0kts
06-Jan-20 12:37 33.932658 -118.399139 83 114ft 0kts
06-Jan-20 12:38 33.932658 -118.399139 83 114ft 0kts
06-Jan-20 12:39 33.932658 -118.399139 83 114ft 0kts
06-Jan-20 12:40 33.932658 -118.399139 83 114ft 0kts
06-Jan-20 12:41 33.932658 -118.399139 83 114ft 0kts
06-Jan-20 12:42 33.932658 -118.399139 83 114ft 0kts
06-Jan-20 12:43 33.932658 -118.399139 83 114ft 0kts
06-Jan-20 12:44 33.932658 -118.399139 83 114ft 0kts
06-Jan-20 12:45 33.932658 -118.399139 83 114ft 0kts
06-Jan-20 12:46 33.932658 -118.399139 83 114ft 0kts
06-Jan-20 12:48 33.932666 -118.399108 69 114ft 1kts
06-Jan-20 12:49 33.933946 -118.398198 11 111ft 0kts
06-Jan-20 12:50 33.935060 -118.393162 83 104ft 22kts
06-Jan-20 12:51 33.935874 -118.385242 84 101ft 21kts
06-Jan-20 12:52 33.936359 -118.382890 11 98ft 0kts
06-Jan-20 12:53 33.936359 -118.382890 11 98ft 0kts
06-Jan-20 12:54 33.936359 -118.382890 11 98ft 0kts
06-Jan-20 12:55 33.936092 -118.397980 268 412ft 87kts
06-Jan-20 12:56 33.935078 -118.425513 269 1469ft 83kts
06-Jan-20 12:57 33.934399 -118.453519 269 2471ft 87kts
06-Jan-20 12:58 33.914680 -118.466219 169 2949ft 125kts
06-Jan-20 12:59 33.877785 -118.460333 172 2968ft 139kts
06-Jan-20 13:00 33.838587 -118.454022 172 3043ft 143kts
06-Jan-20 13:01 33.805641 -118.428034 142 3044ft 143kts
06-Jan-20 13:02 33.774090 -118.398998 142 3045ft 143kts
06-Jan-20 13:03 33.742542 -118.369912 142 3057ft 142kts
06-Jan-20 13:04 33.713090 -118.340826 122 3383ft 127kts
06-Jan-20 13:05 33.693447 -118.304355 122 3572ft 136kts
06-Jan-20 13:06 33.671598 -118.263891 122 3578ft 145kts
06-Jan-20 13:06 33.653362 -118.228993 120 3575ft 147kts
06-Jan-20 13:08 33.628000 -118.180202 120 3572ft 147kts
06-Jan-20 13:09 33.605720 -118.138981 123 3568ft 148kts
06-Jan-20 13:09 33.585296 -118.105235 123 3565ft 147kts
06-Jan-20 13:11 33.559478 -118.055947 119 3561ft 147kts
06-Jan-20 13:11 33.541242 -118.021117 120 3559ft 147kts
06-Jan-20 13:12 33.519361 -117.979463 121 3557ft 148kts
06-Jan-20 13:14 33.493773 -117.930837 121 3556ft 147kts
06-Jan-20 13:14 33.475401 -117.895967 121 3555ft 147kts
06-Jan-20 13:15 33.453604 -117.854634 121 3555ft 147kts
06-Jan-20 13:17 33.428038 -117.806234 121 3553ft 147kts
06-Jan-20 13:17 33.409649 -117.771455 121 3551ft 148kts
06-Jan-20 13:18 33.387072 -117.728780 120 3549ft 148kts
06-Jan-20 13:19 33.364021 -117.685255 119 3547ft 148kts
06-Jan-20 13:20 33.341265 -117.642334 119 3546ft 148kts
06-Jan-20 13:21 33.318719 -117.599857 119 3541ft 148kts
06-Jan-20 13:22 33.296538 -117.558113 119 3536ft 148kts
06-Jan-20 13:23 33.274286 -117.516290 119 3536ft 148kts
06-Jan-20 13:24 33.252112 -117.474658 119 3536ft 148kts
06-Jan-20 13:25 33.223619 -117.439761 153 3535ft 152kts
06-Jan-20 13:26 33.184200 -117.419570 155 3533ft 152kts
06-Jan-20 13:27 33.145305 -117.400179 156 3531ft 151kts
06-Jan-20 13:28 33.106318 -117.381336 157 3528ft 151kts
06-Jan-20 13:29 33.067464 -117.362584 157 3512ft 151kts
06-Jan-20 13:30 33.031055 -117.345039 157 3500ft 148kts
06-Jan-20 13:31 32.992730 -117.326582 157 3500ft 148kts
06-Jan-20 13:32 32.954521 -117.308196 157 3500ft 148kts
06-Jan-20 13:33 32.916300 -117.289816 157 3501ft 149kts
06-Jan-20 13:34 32.878194 -117.271511 158 3501ft 150kts
06-Jan-20 13:35 32.840847 -117.253570 158 3179ft 137kts
06-Jan-20 13:36 32.807414 -117.237504 159 2371ft 124kts
06-Jan-20 13:37 32.776897 -117.221308 151 2003ft 116kts
06-Jan-20 13:38 32.754501 -117.197272 82 1507ft 106kts
06-Jan-20 13:39 32.747034 -117.170227 180 888ft 76kts
06-Jan-20 13:40 32.730861 -117.174223 255 199ft 53kts
06-Jan-20 13:41 32.733169 -117.187729 306 19ft 17kts
06-Jan-20 13:42 32.734191 -117.187860 47 19ft 0kts
06-Jan-20 13:43 32.734191 -117.187860 47 19ft 0kts
06-Jan-20 13:44 32.732787 -117.181775 101 18ft 31kts
06-Jan-20 13:45 32.732722 -117.179551 174 22ft 0kts
06-Jan-20 13:46 32.732722 -117.179551 175 22ft 0kts
06-Jan-20 13:47 32.732722 -117.179551 175 22ft 0kts

Navigation Log

Ident Type
Flight plan parsing failed, navigation log unavailable